sensor_id;sensor_type;location;lat;lon;timestamp;P1;durP1;ratioP1;P2;durP2;ratioP2
12760;SDS011;6444;49.742;6.114;2023-04-12T00:01:15;8.20;;;2.60;;
12760;SDS011;6444;49.742;6.114;2023-04-12T00:03:42;8.53;;;2.50;;
12760;SDS011;6444;49.742;6.114;2023-04-12T00:06:08;7.23;;;3.10;;
12760;SDS011;6444;49.742;6.114;2023-04-12T00:08:35;7.62;;;2.70;;
12760;SDS011;6444;49.742;6.114;2023-04-12T00:11:02;7.67;;;3.00;;
12760;SDS011;6444;49.742;6.114;2023-04-12T00:13:29;6.53;;;2.30;;
12760;SDS011;6444;49.742;6.114;2023-04-12T00:15:56;4.83;;;1.97;;
12760;SDS011;6444;49.742;6.114;2023-04-12T00:18:23;5.00;;;2.30;;
12760;SDS011;6444;49.742;6.114;2023-04-12T00:20:53;5.63;;;2.63;;
12760;SDS011;6444;49.742;6.114;2023-04-12T00:23:19;7.47;;;2.23;;
12760;SDS011;6444;49.742;6.114;2023-04-12T00:25:45;6.93;;;2.60;;
12760;SDS011;6444;49.742;6.114;2023-04-12T00:28:12;7.37;;;2.37;;
12760;SDS011;6444;49.742;6.114;2023-04-12T00:30:39;3.13;;;2.10;;
12760;SDS011;6444;49.742;6.114;2023-04-12T00:33:06;3.57;;;2.47;;
12760;SDS011;6444;49.742;6.114;2023-04-12T00:35:33;7.10;;;2.13;;
12760;SDS011;6444;49.742;6.114;2023-04-12T00:37:59;5.23;;;2.57;;
12760;SDS011;6444;49.742;6.114;2023-04-12T00:40:27;6.73;;;2.60;;
12760;SDS011;6444;49.742;6.114;2023-04-12T00:42:53;5.37;;;2.10;;
12760;SDS011;6444;49.742;6.114;2023-04-12T00:45:20;5.73;;;2.60;;
12760;SDS011;6444;49.742;6.114;2023-04-12T00:47:47;5.77;;;2.63;;
12760;SDS011;6444;49.742;6.114;2023-04-12T00:50:14;4.83;;;2.50;;
12760;SDS011;6444;49.742;6.114;2023-04-12T00:52:41;5.10;;;2.43;;
12760;SDS011;6444;49.742;6.114;2023-04-12T00:55:07;6.90;;;2.77;;
12760;SDS011;6444;49.742;6.114;2023-04-12T00:57:37;6.03;;;2.57;;
12760;SDS011;6444;49.742;6.114;2023-04-12T01:00:07;7.97;;;2.87;;
12760;SDS011;6444;49.742;6.114;2023-04-12T01:02:34;5.37;;;2.90;;
12760;SDS011;6444;49.742;6.114;2023-04-12T01:05:02;4.33;;;2.83;;
12760;SDS011;6444;49.742;6.114;2023-04-12T01:10:24;5.57;;;3.00;;
12760;SDS011;6444;49.742;6.114;2023-04-12T01:15:33;7.37;;;4.43;;
12760;SDS011;6444;49.742;6.114;2023-04-12T01:18:03;8.27;;;4.62;;
12760;SDS011;6444;49.742;6.114;2023-04-12T01:20:36;5.20;;;3.43;;
12760;SDS011;6444;49.742;6.114;2023-04-12T01:23:14;5.23;;;3.43;;
12760;SDS011;6444;49.742;6.114;2023-04-12T01:28:41;5.40;;;3.20;;
12760;SDS011;6444;49.742;6.114;2023-04-12T01:31:04;5.83;;;3.50;;
12760;SDS011;6444;49.742;6.114;2023-04-12T01:33:31;9.13;;;3.50;;
12760;SDS011;6444;49.742;6.114;2023-04-12T01:35:58;6.17;;;3.57;;
12760;SDS011;6444;49.742;6.114;2023-04-12T01:38:24;7.75;;;4.50;;
12760;SDS011;6444;49.742;6.114;2023-04-12T01:40:51;6.73;;;3.60;;
12760;SDS011;6444;49.742;6.114;2023-04-12T01:43:17;6.63;;;3.90;;
12760;SDS011;6444;49.742;6.114;2023-04-12T01:45:44;4.47;;;3.43;;
12760;SDS011;6444;49.742;6.114;2023-04-12T01:48:11;6.13;;;3.07;;
12760;SDS011;6444;49.742;6.114;2023-04-12T01:50:48;6.03;;;4.57;;
12760;SDS011;6444;49.742;6.114;2023-04-12T01:53:11;5.63;;;3.33;;
12760;SDS011;6444;49.742;6.114;2023-04-12T01:55:40;4.37;;;3.90;;
12760;SDS011;6444;49.742;6.114;2023-04-12T01:58:06;10.43;;;5.17;;
12760;SDS011;6444;49.742;6.114;2023-04-12T02:00:32;6.53;;;4.40;;
12760;SDS011;6444;49.742;6.114;2023-04-12T02:03:00;9.30;;;5.27;;
12760;SDS011;6444;49.742;6.114;2023-04-12T02:05:26;7.10;;;4.90;;
12760;SDS011;6444;49.742;6.114;2023-04-12T02:07:53;5.93;;;5.00;;
12760;SDS011;6444;49.742;6.114;2023-04-12T02:10:26;8.20;;;5.57;;
12760;SDS011;6444;49.742;6.114;2023-04-12T02:12:53;7.03;;;4.60;;
12760;SDS011;6444;49.742;6.114;2023-04-12T02:15:19;5.43;;;4.33;;
12760;SDS011;6444;49.742;6.114;2023-04-12T02:17:46;8.43;;;4.50;;
12760;SDS011;6444;49.742;6.114;2023-04-12T02:20:12;7.97;;;4.73;;
12760;SDS011;6444;49.742;6.114;2023-04-12T02:22:39;6.12;;;5.37;;
12760;SDS011;6444;49.742;6.114;2023-04-12T02:25:06;9.13;;;5.85;;
12760;SDS011;6444;49.742;6.114;2023-04-12T02:27:32;6.47;;;4.37;;
12760;SDS011;6444;49.742;6.114;2023-04-12T02:29:59;6.07;;;4.10;;
12760;SDS011;6444;49.742;6.114;2023-04-12T02:32:26;6.32;;;5.15;;
12760;SDS011;6444;49.742;6.114;2023-04-12T02:34:52;4.13;;;3.50;;
12760;SDS011;6444;49.742;6.114;2023-04-12T02:37:19;5.47;;;3.83;;
12760;SDS011;6444;49.742;6.114;2023-04-12T02:39:46;6.10;;;3.83;;
12760;SDS011;6444;49.742;6.114;2023-04-12T02:42:12;5.97;;;4.00;;
12760;SDS011;6444;49.742;6.114;2023-04-12T02:44:39;4.70;;;4.17;;
12760;SDS011;6444;49.742;6.114;2023-04-12T02:47:05;6.67;;;4.13;;
12760;SDS011;6444;49.742;6.114;2023-04-12T02:49:35;6.53;;;3.77;;
12760;SDS011;6444;49.742;6.114;2023-04-12T02:52:01;9.13;;;4.50;;
12760;SDS011;6444;49.742;6.114;2023-04-12T02:54:28;5.40;;;3.80;;
12760;SDS011;6444;49.742;6.114;2023-04-12T02:56:55;5.80;;;3.33;;
12760;SDS011;6444;49.742;6.114;2023-04-12T02:59:21;5.27;;;3.70;;
12760;SDS011;6444;49.742;6.114;2023-04-12T03:01:49;6.23;;;4.43;;
12760;SDS011;6444;49.742;6.114;2023-04-12T03:04:15;7.17;;;3.60;;
12760;SDS011;6444;49.742;6.114;2023-04-12T03:06:42;4.30;;;3.43;;
12760;SDS011;6444;49.742;6.114;2023-04-12T03:09:09;5.03;;;3.40;;
12760;SDS011;6444;49.742;6.114;2023-04-12T03:11:36;6.00;;;3.30;;
12760;SDS011;6444;49.742;6.114;2023-04-12T03:14:03;5.23;;;3.53;;
12760;SDS011;6444;49.742;6.114;2023-04-12T03:16:29;4.27;;;3.33;;
12760;SDS011;6444;49.742;6.114;2023-04-12T03:18:56;6.03;;;3.67;;
12760;SDS011;6444;49.742;6.114;2023-04-12T03:21:23;5.80;;;3.77;;
12760;SDS011;6444;49.742;6.114;2023-04-12T03:23:50;6.60;;;4.17;;
12760;SDS011;6444;49.742;6.114;2023-04-12T03:26:17;4.13;;;3.13;;
12760;SDS011;6444;49.742;6.114;2023-04-12T03:28:43;8.27;;;5.13;;
12760;SDS011;6444;49.742;6.114;2023-04-12T03:31:11;7.67;;;4.50;;
12760;SDS011;6444;49.742;6.114;2023-04-12T03:33:37;7.90;;;5.20;;
12760;SDS011;6444;49.742;6.114;2023-04-12T03:36:04;8.00;;;5.17;;
12760;SDS011;6444;49.742;6.114;2023-04-12T03:38:31;9.67;;;5.40;;
12760;SDS011;6444;49.742;6.114;2023-04-12T03:40:57;5.87;;;4.93;;
12760;SDS011;6444;49.742;6.114;2023-04-12T03:43:24;7.97;;;4.80;;
12760;SDS011;6444;49.742;6.114;2023-04-12T03:45:51;8.57;;;5.80;;
12760;SDS011;6444;49.742;6.114;2023-04-12T03:48:18;8.07;;;5.87;;
12760;SDS011;6444;49.742;6.114;2023-04-12T03:50:45;9.03;;;6.50;;
12760;SDS011;6444;49.742;6.114;2023-04-12T03:53:12;8.23;;;6.17;;
12760;SDS011;6444;49.742;6.114;2023-04-12T03:55:39;10.83;;;6.57;;
12760;SDS011;6444;49.742;6.114;2023-04-12T03:58:05;9.60;;;6.87;;
12760;SDS011;6444;49.742;6.114;2023-04-12T04:00:32;8.20;;;6.63;;
12760;SDS011;6444;49.742;6.114;2023-04-12T04:02:59;11.00;;;7.43;;
12760;SDS011;6444;49.742;6.114;2023-04-12T04:05:25;12.00;;;7.57;;
12760;SDS011;6444;49.742;6.114;2023-04-12T04:07:52;10.00;;;7.10;;
12760;SDS011;6444;49.742;6.114;2023-04-12T04:10:18;12.17;;;8.07;;
12760;SDS011;6444;49.742;6.114;2023-04-12T04:12:45;11.50;;;7.70;;
12760;SDS011;6444;49.742;6.114;2023-04-12T04:15:13;9.37;;;7.80;;
12760;SDS011;6444;49.742;6.114;2023-04-12T04:17:38;10.97;;;8.17;;
12760;SDS011;6444;49.742;6.114;2023-04-12T04:20:06;11.00;;;6.93;;
12760;SDS011;6444;49.742;6.114;2023-04-12T04:22:32;11.53;;;8.43;;
12760;SDS011;6444;49.742;6.114;2023-04-12T04:24:59;9.77;;;7.40;;
12760;SDS011;6444;49.742;6.114;2023-04-12T04:27:26;10.63;;;8.47;;
12760;SDS011;6444;49.742;6.114;2023-04-12T04:29:53;13.57;;;8.67;;
12760;SDS011;6444;49.742;6.114;2023-04-12T04:32:20;10.07;;;8.53;;
12760;SDS011;6444;49.742;6.114;2023-04-12T04:34:46;12.30;;;9.10;;
12760;SDS011;6444;49.742;6.114;2023-04-12T04:37:14;12.93;;;9.20;;
12760;SDS011;6444;49.742;6.114;2023-04-12T04:39:40;11.33;;;8.47;;
12760;SDS011;6444;49.742;6.114;2023-04-12T04:42:07;12.90;;;9.20;;
12760;SDS011;6444;49.742;6.114;2023-04-12T04:44:34;10.83;;;8.13;;
12760;SDS011;6444;49.742;6.114;2023-04-12T04:47:00;10.83;;;8.77;;
12760;SDS011;6444;49.742;6.114;2023-04-12T04:49:28;12.93;;;8.93;;
12760;SDS011;6444;49.742;6.114;2023-04-12T04:51:54;14.43;;;8.83;;
12760;SDS011;6444;49.742;6.114;2023-04-12T04:54:21;12.60;;;9.97;;
12760;SDS011;6444;49.742;6.114;2023-04-12T04:56:48;12.43;;;9.20;;
12760;SDS011;6444;49.742;6.114;2023-04-12T04:59:16;10.00;;;7.73;;
12760;SDS011;6444;49.742;6.114;2023-04-12T05:01:42;11.17;;;8.97;;
12760;SDS011;6444;49.742;6.114;2023-04-12T05:04:08;12.20;;;9.00;;
12760;SDS011;6444;49.742;6.114;2023-04-12T05:06:35;12.80;;;9.43;;
12760;SDS011;6444;49.742;6.114;2023-04-12T05:09:02;13.73;;;9.27;;
12760;SDS011;6444;49.742;6.114;2023-04-12T05:11:29;13.23;;;9.97;;
12760;SDS011;6444;49.742;6.114;2023-04-12T05:13:55;13.10;;;9.23;;
12760;SDS011;6444;49.742;6.114;2023-04-12T05:16:23;11.17;;;9.30;;
12760;SDS011;6444;49.742;6.114;2023-04-12T05:18:50;19.85;;;16.48;;
12760;SDS011;6444;49.742;6.114;2023-04-12T05:21:16;15.30;;;11.70;;
12760;SDS011;6444;49.742;6.114;2023-04-12T05:23:44;12.30;;;9.37;;
12760;SDS011;6444;49.742;6.114;2023-04-12T05:26:10;14.13;;;11.07;;
12760;SDS011;6444;49.742;6.114;2023-04-12T05:28:36;16.50;;;11.97;;
12760;SDS011;6444;49.742;6.114;2023-04-12T05:31:03;12.83;;;9.80;;
12760;SDS011;6444;49.742;6.114;2023-04-12T05:33:30;11.47;;;8.97;;
12760;SDS011;6444;49.742;6.114;2023-04-12T05:35:56;13.50;;;9.50;;
12760;SDS011;6444;49.742;6.114;2023-04-12T05:38:23;18.53;;;9.60;;
12760;SDS011;6444;49.742;6.114;2023-04-12T05:40:50;11.73;;;9.13;;
12760;SDS011;6444;49.742;6.114;2023-04-12T05:43:16;14.43;;;9.57;;
12760;SDS011;6444;49.742;6.114;2023-04-12T05:45:44;12.77;;;8.87;;
12760;SDS011;6444;49.742;6.114;2023-04-12T05:48:10;13.50;;;9.27;;
12760;SDS011;6444;49.742;6.114;2023-04-12T05:50:37;13.03;;;8.30;;
12760;SDS011;6444;49.742;6.114;2023-04-12T05:53:04;12.73;;;8.40;;
12760;SDS011;6444;49.742;6.114;2023-04-12T05:55:31;16.67;;;9.20;;
12760;SDS011;6444;49.742;6.114;2023-04-12T05:57:58;16.43;;;9.10;;
12760;SDS011;6444;49.742;6.114;2023-04-12T06:00:24;9.53;;;6.53;;
12760;SDS011;6444;49.742;6.114;2023-04-12T06:02:51;11.13;;;8.37;;
12760;SDS011;6444;49.742;6.114;2023-04-12T06:05:18;11.80;;;8.90;;
12760;SDS011;6444;49.742;6.114;2023-04-12T06:07:45;12.90;;;8.87;;
12760;SDS011;6444;49.742;6.114;2023-04-12T06:10:13;13.13;;;8.37;;
12760;SDS011;6444;49.742;6.114;2023-04-12T06:12:39;13.50;;;8.23;;
12760;SDS011;6444;49.742;6.114;2023-04-12T06:15:06;13.17;;;8.60;;
12760;SDS011;6444;49.742;6.114;2023-04-12T06:17:33;8.50;;;7.37;;
12760;SDS011;6444;49.742;6.114;2023-04-12T06:19:59;9.30;;;7.67;;
12760;SDS011;6444;49.742;6.114;2023-04-12T06:22:26;11.52;;;9.25;;
12760;SDS011;6444;49.742;6.114;2023-04-12T06:24:52;9.37;;;7.30;;
12760;SDS011;6444;49.742;6.114;2023-04-12T06:27:19;10.73;;;7.30;;
12760;SDS011;6444;49.742;6.114;2023-04-12T06:29:46;9.73;;;7.57;;
12760;SDS011;6444;49.742;6.114;2023-04-12T06:32:13;13.37;;;8.33;;
12760;SDS011;6444;49.742;6.114;2023-04-12T06:34:40;9.73;;;6.10;;
12760;SDS011;6444;49.742;6.114;2023-04-12T06:37:06;10.27;;;6.10;;
12760;SDS011;6444;49.742;6.114;2023-04-12T06:39:33;11.00;;;6.60;;
12760;SDS011;6444;49.742;6.114;2023-04-12T06:42:00;8.70;;;5.87;;
12760;SDS011;6444;49.742;6.114;2023-04-12T06:44:27;9.10;;;5.70;;
12760;SDS011;6444;49.742;6.114;2023-04-12T06:46:54;8.40;;;6.27;;
12760;SDS011;6444;49.742;6.114;2023-04-12T06:49:21;6.37;;;4.63;;
12760;SDS011;6444;49.742;6.114;2023-04-12T06:51:48;9.33;;;5.93;;
12760;SDS011;6444;49.742;6.114;2023-04-12T06:54:14;7.40;;;5.10;;
12760;SDS011;6444;49.742;6.114;2023-04-12T06:56:41;6.83;;;4.93;;
12760;SDS011;6444;49.742;6.114;2023-04-12T06:59:08;6.53;;;4.60;;
12760;SDS011;6444;49.742;6.114;2023-04-12T07:01:34;4.93;;;4.03;;
12760;SDS011;6444;49.742;6.114;2023-04-12T07:04:01;7.03;;;5.00;;
12760;SDS011;6444;49.742;6.114;2023-04-12T07:06:27;7.53;;;4.43;;
12760;SDS011;6444;49.742;6.114;2023-04-12T07:08:54;5.13;;;4.03;;
12760;SDS011;6444;49.742;6.114;2023-04-12T07:11:21;12.30;;;8.47;;
12760;SDS011;6444;49.742;6.114;2023-04-12T07:13:48;16.97;;;13.20;;
12760;SDS011;6444;49.742;6.114;2023-04-12T07:16:15;6.83;;;3.70;;
12760;SDS011;6444;49.742;6.114;2023-04-12T07:18:46;5.27;;;3.87;;
12760;SDS011;6444;49.742;6.114;2023-04-12T07:21:16;4.17;;;3.53;;
12760;SDS011;6444;49.742;6.114;2023-04-12T07:23:43;3.27;;;2.80;;
12760;SDS011;6444;49.742;6.114;2023-04-12T07:26:09;4.90;;;3.85;;
12760;SDS011;6444;49.742;6.114;2023-04-12T07:28:36;5.97;;;4.18;;
12760;SDS011;6444;49.742;6.114;2023-04-12T07:31:05;4.68;;;3.17;;
12760;SDS011;6444;49.742;6.114;2023-04-12T07:33:32;3.15;;;2.30;;
12760;SDS011;6444;49.742;6.114;2023-04-12T07:35:59;4.67;;;3.00;;
12760;SDS011;6444;49.742;6.114;2023-04-12T07:38:25;4.13;;;2.80;;
12760;SDS011;6444;49.742;6.114;2023-04-12T07:40:53;5.35;;;3.90;;
12760;SDS011;6444;49.742;6.114;2023-04-12T07:43:19;6.37;;;4.82;;
12760;SDS011;6444;49.742;6.114;2023-04-12T07:45:45;4.93;;;2.80;;
12760;SDS011;6444;49.742;6.114;2023-04-12T07:48:12;2.80;;;2.25;;
12760;SDS011;6444;49.742;6.114;2023-04-12T07:50:39;3.23;;;2.40;;
12760;SDS011;6444;49.742;6.114;2023-04-12T07:53:25;4.13;;;2.63;;
12760;SDS011;6444;49.742;6.114;2023-04-12T07:55:51;3.87;;;2.60;;
12760;SDS011;6444;49.742;6.114;2023-04-12T07:58:18;3.20;;;2.70;;
12760;SDS011;6444;49.742;6.114;2023-04-12T08:00:44;3.05;;;2.55;;
12760;SDS011;6444;49.742;6.114;2023-04-12T08:03:11;3.95;;;2.33;;
12760;SDS011;6444;49.742;6.114;2023-04-12T08:05:38;4.03;;;2.50;;
12760;SDS011;6444;49.742;6.114;2023-04-12T08:08:05;2.85;;;2.47;;
12760;SDS011;6444;49.742;6.114;2023-04-12T08:10:31;4.13;;;2.20;;
12760;SDS011;6444;49.742;6.114;2023-04-12T08:12:58;2.73;;;2.07;;
12760;SDS011;6444;49.742;6.114;2023-04-12T08:15:24;2.30;;;2.05;;
12760;SDS011;6444;49.742;6.114;2023-04-12T08:17:51;1.60;;;1.50;;
12760;SDS011;6444;49.742;6.114;2023-04-12T08:20:18;2.03;;;1.77;;
12760;SDS011;6444;49.742;6.114;2023-04-12T08:22:44;3.83;;;2.22;;
12760;SDS011;6444;49.742;6.114;2023-04-12T08:25:11;3.50;;;2.10;;
12760;SDS011;6444;49.742;6.114;2023-04-12T08:27:41;3.83;;;2.08;;
12760;SDS011;6444;49.742;6.114;2023-04-12T08:30:05;4.60;;;2.50;;
12760;SDS011;6444;49.742;6.114;2023-04-12T08:32:32;3.30;;;2.37;;
12760;SDS011;6444;49.742;6.114;2023-04-12T08:34:58;2.50;;;1.67;;
12760;SDS011;6444;49.742;6.114;2023-04-12T08:37:25;4.37;;;1.80;;
12760;SDS011;6444;49.742;6.114;2023-04-12T08:39:52;2.15;;;1.60;;
12760;SDS011;6444;49.742;6.114;2023-04-12T08:42:18;2.53;;;1.60;;
12760;SDS011;6444;49.742;6.114;2023-04-12T08:44:46;1.45;;;1.30;;
12760;SDS011;6444;49.742;6.114;2023-04-12T08:47:12;1.92;;;1.10;;
12760;SDS011;6444;49.742;6.114;2023-04-12T08:49:39;1.60;;;1.17;;
12760;SDS011;6444;49.742;6.114;2023-04-12T08:52:06;4.43;;;1.25;;
12760;SDS011;6444;49.742;6.114;2023-04-12T08:54:32;0.77;;;0.70;;
12760;SDS011;6444;49.742;6.114;2023-04-12T08:56:59;0.73;;;0.70;;
12760;SDS011;6444;49.742;6.114;2023-04-12T08:59:28;1.35;;;0.75;;
12760;SDS011;6444;49.742;6.114;2023-04-12T09:01:56;2.05;;;0.60;;
12760;SDS011;6444;49.742;6.114;2023-04-12T09:04:22;1.15;;;0.60;;
12760;SDS011;6444;49.742;6.114;2023-04-12T09:06:49;0.73;;;0.50;;
12760;SDS011;6444;49.742;6.114;2023-04-12T09:09:15;1.45;;;0.70;;
12760;SDS011;6444;49.742;6.114;2023-04-12T09:11:42;0.80;;;0.50;;
12760;SDS011;6444;49.742;6.114;2023-04-12T09:14:21;0.50;;;0.50;;
12760;SDS011;6444;49.742;6.114;2023-04-12T09:16:48;0.52;;;0.50;;
12760;SDS011;6444;49.742;6.114;2023-04-12T09:19:14;1.92;;;0.82;;
12760;SDS011;6444;49.742;6.114;2023-04-12T09:21:51;1.73;;;0.70;;
12760;SDS011;6444;49.742;6.114;2023-04-12T09:24:16;3.28;;;1.83;;
12760;SDS011;6444;49.742;6.114;2023-04-12T09:26:43;1.25;;;0.95;;
12760;SDS011;6444;49.742;6.114;2023-04-12T09:29:20;4.28;;;0.80;;
12760;SDS011;6444;49.742;6.114;2023-04-12T09:31:39;2.75;;;0.50;;
12760;SDS011;6444;49.742;6.114;2023-04-12T09:34:06;1.42;;;0.50;;
12760;SDS011;6444;49.742;6.114;2023-04-12T09:36:38;0.40;;;0.40;;
12760;SDS011;6444;49.742;6.114;2023-04-12T09:39:06;0.98;;;0.50;;
12760;SDS011;6444;49.742;6.114;2023-04-12T09:41:32;4.62;;;1.10;;
12760;SDS011;6444;49.742;6.114;2023-04-12T09:43:59;4.90;;;1.65;;
12760;SDS011;6444;49.742;6.114;2023-04-12T09:46:26;2.05;;;0.90;;
12760;SDS011;6444;49.742;6.114;2023-04-12T09:48:54;3.35;;;1.30;;
12760;SDS011;6444;49.742;6.114;2023-04-12T09:51:38;5.03;;;0.90;;
12760;SDS011;6444;49.742;6.114;2023-04-12T09:53:56;1.15;;;0.90;;
12760;SDS011;6444;49.742;6.114;2023-04-12T09:56:22;0.50;;;0.50;;
12760;SDS011;6444;49.742;6.114;2023-04-12T09:58:50;14.68;;;2.10;;
12760;SDS011;6444;49.742;6.114;2023-04-12T10:01:15;2.47;;;0.98;;
12760;SDS011;6444;49.742;6.114;2023-04-12T10:03:41;2.42;;;0.70;;
12760;SDS011;6444;49.742;6.114;2023-04-12T10:06:08;0.80;;;0.70;;
12760;SDS011;6444;49.742;6.114;2023-04-12T10:08:36;1.05;;;0.60;;
12760;SDS011;6444;49.742;6.114;2023-04-12T10:11:02;1.58;;;0.62;;
12760;SDS011;6444;49.742;6.114;2023-04-12T10:13:30;1.02;;;0.60;;
12760;SDS011;6444;49.742;6.114;2023-04-12T10:15:55;0.95;;;0.60;;
12760;SDS011;6444;49.742;6.114;2023-04-12T10:18:22;17.42;;;3.12;;
12760;SDS011;6444;49.742;6.114;2023-04-12T10:20:49;2.05;;;0.70;;
12760;SDS011;6444;49.742;6.114;2023-04-12T10:23:16;2.30;;;0.88;;
12760;SDS011;6444;49.742;6.114;2023-04-12T10:25:43;0.80;;;0.77;;
12760;SDS011;6444;49.742;6.114;2023-04-12T10:28:16;44.78;;;7.07;;
12760;SDS011;6444;49.742;6.114;2023-04-12T10:30:39;12.35;;;1.65;;
12760;SDS011;6444;49.742;6.114;2023-04-12T10:38:13;1.80;;;0.80;;
12760;SDS011;6444;49.742;6.114;2023-04-12T10:43:31;10.98;;;9.30;;
12760;SDS011;6444;49.742;6.114;2023-04-12T10:45:59;3.53;;;3.22;;
12760;SDS011;6444;49.742;6.114;2023-04-12T10:48:29;0.95;;;0.62;;
12760;SDS011;6444;49.742;6.114;2023-04-12T10:53:43;2.35;;;0.70;;
12760;SDS011;6444;49.742;6.114;2023-04-12T10:58:56;0.55;;;0.52;;
12760;SDS011;6444;49.742;6.114;2023-04-12T11:01:21;1.10;;;0.70;;
12760;SDS011;6444;49.742;6.114;2023-04-12T11:04:07;1.25;;;1.12;;
12760;SDS011;6444;49.742;6.114;2023-04-12T11:06:49;0.80;;;0.70;;
12760;SDS011;6444;49.742;6.114;2023-04-12T11:14:32;1.15;;;0.62;;
12760;SDS011;6444;49.742;6.114;2023-04-12T11:19:37;0.52;;;0.52;;
12760;SDS011;6444;49.742;6.114;2023-04-12T11:22:04;0.85;;;0.60;;
12760;SDS011;6444;49.742;6.114;2023-04-12T11:24:30;1.70;;;1.55;;
12760;SDS011;6444;49.742;6.114;2023-04-12T11:26:57;1.48;;;1.35;;
12760;SDS011;6444;49.742;6.114;2023-04-12T11:29:24;0.75;;;0.70;;
12760;SDS011;6444;49.742;6.114;2023-04-12T11:31:50;0.55;;;0.50;;
12760;SDS011;6444;49.742;6.114;2023-04-12T11:34:17;3.55;;;3.20;;
12760;SDS011;6444;49.742;6.114;2023-04-12T11:36:47;7.00;;;5.25;;
12760;SDS011;6444;49.742;6.114;2023-04-12T11:39:12;3.35;;;3.05;;
12760;SDS011;6444;49.742;6.114;2023-04-12T11:41:48;0.98;;;0.60;;
12760;SDS011;6444;49.742;6.114;2023-04-12T11:44:15;0.82;;;0.70;;
12760;SDS011;6444;49.742;6.114;2023-04-12T11:46:44;1.00;;;0.50;;
12760;SDS011;6444;49.742;6.114;2023-04-12T11:49:18;0.52;;;0.50;;
12760;SDS011;6444;49.742;6.114;2023-04-12T11:51:40;0.68;;;0.40;;
12760;SDS011;6444;49.742;6.114;2023-04-12T11:54:07;0.40;;;0.30;;
12760;SDS011;6444;49.742;6.114;2023-04-12T11:56:33;0.52;;;0.40;;
12760;SDS011;6444;49.742;6.114;2023-04-12T11:59:00;0.60;;;0.60;;
12760;SDS011;6444;49.742;6.114;2023-04-12T12:01:27;0.50;;;0.40;;
12760;SDS011;6444;49.742;6.114;2023-04-12T12:03:53;1.10;;;0.90;;
12760;SDS011;6444;49.742;6.114;2023-04-12T12:06:20;1.17;;;1.08;;
12760;SDS011;6444;49.742;6.114;2023-04-12T12:08:48;0.70;;;0.60;;
12760;SDS011;6444;49.742;6.114;2023-04-12T12:11:13;0.40;;;0.40;;
12760;SDS011;6444;49.742;6.114;2023-04-12T12:16:13;1.85;;;0.60;;
12760;SDS011;6444;49.742;6.114;2023-04-12T12:18:42;0.77;;;0.60;;
12760;SDS011;6444;49.742;6.114;2023-04-12T12:21:09;0.60;;;0.37;;
12760;SDS011;6444;49.742;6.114;2023-04-12T12:23:35;1.08;;;0.52;;
12760;SDS011;6444;49.742;6.114;2023-04-12T12:26:05;1.12;;;0.40;;
12760;SDS011;6444;49.742;6.114;2023-04-12T12:28:40;0.40;;;0.40;;
12760;SDS011;6444;49.742;6.114;2023-04-12T12:31:08;0.30;;;0.30;;
12760;SDS011;6444;49.742;6.114;2023-04-12T12:33:36;1.58;;;0.37;;
12760;SDS011;6444;49.742;6.114;2023-04-12T12:36:03;0.40;;;0.40;;
12760;SDS011;6444;49.742;6.114;2023-04-12T12:38:35;0.30;;;0.30;;
12760;SDS011;6444;49.742;6.114;2023-04-12T12:41:17;5.80;;;4.62;;
12760;SDS011;6444;49.742;6.114;2023-04-12T12:43:44;11.32;;;10.18;;
12760;SDS011;6444;49.742;6.114;2023-04-12T12:46:10;1.77;;;0.57;;
12760;SDS011;6444;49.742;6.114;2023-04-12T12:48:40;1.67;;;0.50;;
12760;SDS011;6444;49.742;6.114;2023-04-12T12:51:09;0.50;;;0.50;;
12760;SDS011;6444;49.742;6.114;2023-04-12T12:53:36;1.73;;;0.50;;
12760;SDS011;6444;49.742;6.114;2023-04-12T12:56:02;0.30;;;0.30;;
12760;SDS011;6444;49.742;6.114;2023-04-12T12:58:29;0.40;;;0.40;;
12760;SDS011;6444;49.742;6.114;2023-04-12T13:00:56;0.60;;;0.60;;
12760;SDS011;6444;49.742;6.114;2023-04-12T13:03:22;0.70;;;0.50;;
12760;SDS011;6444;49.742;6.114;2023-04-12T13:05:49;1.30;;;0.50;;
12760;SDS011;6444;49.742;6.114;2023-04-12T13:08:16;0.80;;;0.70;;
12760;SDS011;6444;49.742;6.114;2023-04-12T13:10:42;1.27;;;0.60;;
12760;SDS011;6444;49.742;6.114;2023-04-12T13:13:09;0.70;;;0.50;;
12760;SDS011;6444;49.742;6.114;2023-04-12T13:15:35;1.70;;;0.62;;
12760;SDS011;6444;49.742;6.114;2023-04-12T13:18:02;1.10;;;0.90;;
12760;SDS011;6444;49.742;6.114;2023-04-12T13:20:29;2.35;;;0.82;;
12760;SDS011;6444;49.742;6.114;2023-04-12T13:22:56;2.10;;;0.70;;
12760;SDS011;6444;49.742;6.114;2023-04-12T13:25:23;1.10;;;0.60;;
12760;SDS011;6444;49.742;6.114;2023-04-12T13:27:50;1.20;;;0.70;;
12760;SDS011;6444;49.742;6.114;2023-04-12T13:30:16;2.22;;;0.98;;
12760;SDS011;6444;49.742;6.114;2023-04-12T13:32:43;0.98;;;0.57;;
12760;SDS011;6444;49.742;6.114;2023-04-12T13:35:10;2.70;;;0.80;;
12760;SDS011;6444;49.742;6.114;2023-04-12T13:37:37;1.70;;;0.93;;
12760;SDS011;6444;49.742;6.114;2023-04-12T13:40:03;2.05;;;0.62;;
12760;SDS011;6444;49.742;6.114;2023-04-12T13:42:30;1.20;;;0.62;;
12760;SDS011;6444;49.742;6.114;2023-04-12T13:44:57;12.18;;;8.63;;
12760;SDS011;6444;49.742;6.114;2023-04-12T13:47:23;4.50;;;3.87;;
12760;SDS011;6444;49.742;6.114;2023-04-12T13:49:50;2.72;;;0.85;;
12760;SDS011;6444;49.742;6.114;2023-04-12T13:52:16;2.20;;;0.57;;
12760;SDS011;6444;49.742;6.114;2023-04-12T13:54:43;3.58;;;1.20;;
12760;SDS011;6444;49.742;6.114;2023-04-12T13:57:10;2.58;;;1.00;;
12760;SDS011;6444;49.742;6.114;2023-04-12T13:59:37;3.83;;;1.10;;
12760;SDS011;6444;49.742;6.114;2023-04-12T14:02:04;2.87;;;0.90;;
12760;SDS011;6444;49.742;6.114;2023-04-12T14:04:31;3.95;;;1.10;;
12760;SDS011;6444;49.742;6.114;2023-04-12T14:06:58;2.62;;;0.90;;
12760;SDS011;6444;49.742;6.114;2023-04-12T14:09:28;2.10;;;0.80;;
12760;SDS011;6444;49.742;6.114;2023-04-12T14:11:54;1.50;;;0.70;;
12760;SDS011;6444;49.742;6.114;2023-04-12T14:14:21;2.83;;;1.00;;
12760;SDS011;6444;49.742;6.114;2023-04-12T14:16:50;2.83;;;0.95;;
12760;SDS011;6444;49.742;6.114;2023-04-12T14:19:17;3.45;;;1.42;;
12760;SDS011;6444;49.742;6.114;2023-04-12T14:21:43;2.20;;;0.80;;
12760;SDS011;6444;49.742;6.114;2023-04-12T14:24:10;0.75;;;0.60;;
12760;SDS011;6444;49.742;6.114;2023-04-12T14:26:37;1.58;;;0.70;;
12760;SDS011;6444;49.742;6.114;2023-04-12T14:29:07;5.75;;;0.70;;
12760;SDS011;6444;49.742;6.114;2023-04-12T14:31:31;2.25;;;0.60;;
12760;SDS011;6444;49.742;6.114;2023-04-12T14:33:57;1.25;;;0.82;;
12760;SDS011;6444;49.742;6.114;2023-04-12T14:36:24;1.48;;;0.60;;
12760;SDS011;6444;49.742;6.114;2023-04-12T14:38:50;2.62;;;1.40;;
12760;SDS011;6444;49.742;6.114;2023-04-12T14:41:17;1.37;;;0.70;;
12760;SDS011;6444;49.742;6.114;2023-04-12T14:43:44;2.28;;;0.80;;
12760;SDS011;6444;49.742;6.114;2023-04-12T14:46:11;1.25;;;0.60;;
12760;SDS011;6444;49.742;6.114;2023-04-12T14:48:38;0.95;;;0.50;;
12760;SDS011;6444;49.742;6.114;2023-04-12T14:51:04;2.65;;;0.60;;
12760;SDS011;6444;49.742;6.114;2023-04-12T14:53:32;1.35;;;0.50;;
12760;SDS011;6444;49.742;6.114;2023-04-12T14:55:58;1.45;;;0.70;;
12760;SDS011;6444;49.742;6.114;2023-04-12T14:58:25;3.80;;;1.80;;
12760;SDS011;6444;49.742;6.114;2023-04-12T15:00:52;1.52;;;0.65;;
12760;SDS011;6444;49.742;6.114;2023-04-12T15:03:18;1.17;;;0.70;;
12760;SDS011;6444;49.742;6.114;2023-04-12T15:05:45;2.70;;;0.80;;
12760;SDS011;6444;49.742;6.114;2023-04-12T15:08:12;0.82;;;0.60;;
12760;SDS011;6444;49.742;6.114;2023-04-12T15:10:38;3.45;;;0.75;;
12760;SDS011;6444;49.742;6.114;2023-04-12T15:13:05;2.12;;;0.70;;
12760;SDS011;6444;49.742;6.114;2023-04-12T15:15:31;1.62;;;0.75;;
12760;SDS011;6444;49.742;6.114;2023-04-12T15:17:58;1.42;;;0.80;;
12760;SDS011;6444;49.742;6.114;2023-04-12T15:20:25;1.45;;;0.60;;
12760;SDS011;6444;49.742;6.114;2023-04-12T15:22:51;1.75;;;0.62;;
12760;SDS011;6444;49.742;6.114;2023-04-12T15:25:18;1.90;;;0.70;;
12760;SDS011;6444;49.742;6.114;2023-04-12T15:27:45;1.05;;;0.62;;
12760;SDS011;6444;49.742;6.114;2023-04-12T15:30:12;1.35;;;0.70;;